sensor_id;sensor_type;location;lat;lon;timestamp;pressure;altitude;pressure_sealevel;temperature;humidity
43364;BME280;40636;52.424;-1.948;2023-01-29T00:02:05;101311.59;;;4.89;100.00
43364;BME280;40636;52.424;-1.948;2023-01-29T00:04:32;101314.50;;;4.87;100.00
43364;BME280;40636;52.424;-1.948;2023-01-29T00:07:02;101313.81;;;4.85;100.00
43364;BME280;40636;52.424;-1.948;2023-01-29T00:09:29;101312.47;;;4.81;100.00
43364;BME280;40636;52.424;-1.948;2023-01-29T00:11:57;101313.34;;;4.81;100.00
43364;BME280;40636;52.424;-1.948;2023-01-29T00:14:24;101310.13;;;4.78;100.00
43364;BME280;40636;52.424;-1.948;2023-01-29T00:16:52;101320.16;;;4.77;100.00
43364;BME280;40636;52.424;-1.948;2023-01-29T00:19:19;101315.63;;;4.70;100.00
43364;BME280;40636;52.424;-1.948;2023-01-29T00:21:46;101318.84;;;4.73;100.00
43364;BME280;40636;52.424;-1.948;2023-01-29T00:24:12;101307.28;;;4.71;100.00
43364;BME280;40636;52.424;-1.948;2023-01-29T00:26:39;101313.41;;;4.73;100.00
43364;BME280;40636;52.424;-1.948;2023-01-29T00:29:07;101319.97;;;4.79;100.00
43364;BME280;40636;52.424;-1.948;2023-01-29T00:31:34;101312.34;;;4.74;100.00
43364;BME280;40636;52.424;-1.948;2023-01-29T00:34:01;101315.72;;;4.76;100.00
43364;BME280;40636;52.424;-1.948;2023-01-29T00:36:29;101313.41;;;4.73;100.00
43364;BME280;40636;52.424;-1.948;2023-01-29T00:38:58;101316.97;;;4.74;100.00
43364;BME280;40636;52.424;-1.948;2023-01-29T00:41:28;101319.00;;;4.72;100.00
43364;BME280;40636;52.424;-1.948;2023-01-29T00:44:14;101316.75;;;4.75;100.00
43364;BME280;40636;52.424;-1.948;2023-01-29T00:47:10;101318.88;;;4.65;100.00
43364;BME280;40636;52.424;-1.948;2023-01-29T00:49:56;101323.28;;;4.66;100.00
43364;BME280;40636;52.424;-1.948;2023-01-29T00:52:23;101323.47;;;4.65;100.00
43364;BME280;40636;52.424;-1.948;2023-01-29T00:54:56;101318.88;;;4.65;100.00
43364;BME280;40636;52.424;-1.948;2023-01-29T00:57:25;101312.22;;;4.68;100.00
43364;BME280;40636;52.424;-1.948;2023-01-29T00:59:52;101328.53;;;4.68;100.00
43364;BME280;40636;52.424;-1.948;2023-01-29T01:02:20;101319.06;;;4.64;100.00
43364;BME280;40636;52.424;-1.948;2023-01-29T01:05:06;101310.75;;;4.57;100.00
43364;BME280;40636;52.424;-1.948;2023-01-29T01:07:35;101305.53;;;4.47;100.00
43364;BME280;40636;52.424;-1.948;2023-01-29T01:10:02;101305.88;;;4.44;100.00
43364;BME280;40636;52.424;-1.948;2023-01-29T01:15:19;101281.09;;;4.39;100.00
43364;BME280;40636;52.424;-1.948;2023-01-29T01:17:46;101283.19;;;4.29;100.00
43364;BME280;40636;52.424;-1.948;2023-01-29T01:20:14;101275.09;;;4.21;100.00
43364;BME280;40636;52.424;-1.948;2023-01-29T01:22:41;101276.63;;;4.15;100.00
43364;BME280;40636;52.424;-1.948;2023-01-29T01:25:08;101281.22;;;4.15;100.00
43364;BME280;40636;52.424;-1.948;2023-01-29T01:27:35;101273.41;;;4.12;100.00
43364;BME280;40636;52.424;-1.948;2023-01-29T01:30:12;101271.22;;;4.07;100.00
43364;BME280;40636;52.424;-1.948;2023-01-29T01:32:41;101267.50;;;4.08;100.00
43364;BME280;40636;52.424;-1.948;2023-01-29T01:35:10;101263.59;;;4.02;100.00
43364;BME280;40636;52.424;-1.948;2023-01-29T01:37:37;101267.34;;;4.01;100.00
43364;BME280;40636;52.424;-1.948;2023-01-29T01:40:07;101266.66;;;4.07;100.00
43364;BME280;40636;52.424;-1.948;2023-01-29T01:42:49;101255.44;;;4.11;100.00
43364;BME280;40636;52.424;-1.948;2023-01-29T01:47:48;101259.41;;;4.00;100.00
43364;BME280;40636;52.424;-1.948;2023-01-29T01:50:21;101255.28;;;4.04;100.00
43364;BME280;40636;52.424;-1.948;2023-01-29T01:52:57;101258.88;;;3.96;100.00
43364;BME280;40636;52.424;-1.948;2023-01-29T01:55:26;101252.63;;;3.96;100.00
43364;BME280;40636;52.424;-1.948;2023-01-29T01:58:05;101257.19;;;3.95;100.00
43364;BME280;40636;52.424;-1.948;2023-01-29T02:00:34;101248.38;;;3.93;100.00
43364;BME280;40636;52.424;-1.948;2023-01-29T02:03:01;101247.03;;;3.89;100.00
43364;BME280;40636;52.424;-1.948;2023-01-29T02:05:46;101244.69;;;3.78;100.00
43364;BME280;40636;52.424;-1.948;2023-01-29T02:08:46;101238.94;;;3.73;100.00
43364;BME280;40636;52.424;-1.948;2023-01-29T02:11:35;101244.53;;;3.71;100.00
43364;BME280;40636;52.424;-1.948;2023-01-29T02:14:02;101242.31;;;3.75;100.00
43364;BME280;40636;52.424;-1.948;2023-01-29T02:16:28;101241.97;;;3.78;100.00
43364;BME280;40636;52.424;-1.948;2023-01-29T02:18:55;101237.91;;;3.82;100.00
43364;BME280;40636;52.424;-1.948;2023-01-29T02:32:30;101228.28;;;4.11;100.00
43364;BME280;40636;52.424;-1.948;2023-01-29T02:40:51;101211.13;;;4.10;100.00
43364;BME280;40636;52.424;-1.948;2023-01-29T02:49:30;101191.09;;;4.11;100.00
43364;BME280;40636;52.424;-1.948;2023-01-29T02:51:36;101185.47;;;4.13;100.00
43364;BME280;40636;52.424;-1.948;2023-01-29T02:54:22;101181.56;;;4.15;100.00
43364;BME280;40636;52.424;-1.948;2023-01-29T02:56:53;101178.16;;;4.13;100.00
43364;BME280;40636;52.424;-1.948;2023-01-29T02:59:25;101183.94;;;4.18;100.00
43364;BME280;40636;52.424;-1.948;2023-01-29T03:02:19;101184.94;;;4.17;100.00
43364;BME280;40636;52.424;-1.948;2023-01-29T03:04:49;101187.09;;;4.22;100.00
43364;BME280;40636;52.424;-1.948;2023-01-29T03:07:21;101184.59;;;4.20;100.00
43364;BME280;40636;52.424;-1.948;2023-01-29T03:10:16;101177.28;;;4.21;100.00
43364;BME280;40636;52.424;-1.948;2023-01-29T03:12:50;101178.97;;;4.22;100.00
43364;BME280;40636;52.424;-1.948;2023-01-29T03:15:28;101167.44;;;4.20;100.00
43364;BME280;40636;52.424;-1.948;2023-01-29T03:18:17;101166.22;;;4.22;100.00
43364;BME280;40636;52.424;-1.948;2023-01-29T03:20:50;101164.41;;;4.15;100.00
43364;BME280;40636;52.424;-1.948;2023-01-29T03:23:21;101162.06;;;4.12;100.00
43364;BME280;40636;52.424;-1.948;2023-01-29T03:25:56;101165.84;;;4.02;100.00
43364;BME280;40636;52.424;-1.948;2023-01-29T03:28:44;101169.94;;;3.98;100.00
43364;BME280;40636;52.424;-1.948;2023-01-29T03:31:31;101161.78;;;3.98;100.00
43364;BME280;40636;52.424;-1.948;2023-01-29T03:34:20;101156.34;;;3.98;100.00
43364;BME280;40636;52.424;-1.948;2023-01-29T03:36:59;101156.88;;;3.94;100.00
43364;BME280;40636;52.424;-1.948;2023-01-29T03:39:28;101149.56;;;3.94;100.00
43364;BME280;40636;52.424;-1.948;2023-01-29T03:42:08;101152.66;;;3.91;100.00
43364;BME280;40636;52.424;-1.948;2023-01-29T03:53:50;101152.47;;;3.93;100.00
43364;BME280;40636;52.424;-1.948;2023-01-29T03:59:01;101147.00;;;4.01;100.00
43364;BME280;40636;52.424;-1.948;2023-01-29T04:01:35;101145.97;;;4.02;100.00
43364;BME280;40636;52.424;-1.948;2023-01-29T04:04:10;101138.03;;;4.00;100.00
43364;BME280;40636;52.424;-1.948;2023-01-29T04:06:43;101128.66;;;4.03;100.00
43364;BME280;40636;52.424;-1.948;2023-01-29T04:09:15;101131.22;;;4.04;100.00
43364;BME280;40636;52.424;-1.948;2023-01-29T04:12:01;101137.28;;;4.06;100.00
43364;BME280;40636;52.424;-1.948;2023-01-29T04:14:30;101121.53;;;4.02;100.00
43364;BME280;40636;52.424;-1.948;2023-01-29T04:17:00;101122.72;;;3.99;100.00
43364;BME280;40636;52.424;-1.948;2023-01-29T04:19:29;101132.06;;;4.05;100.00
43364;BME280;40636;52.424;-1.948;2023-01-29T04:22:21;101119.13;;;4.07;100.00
43364;BME280;40636;52.424;-1.948;2023-01-29T04:24:50;101112.97;;;4.13;100.00
43364;BME280;40636;52.424;-1.948;2023-01-29T04:27:26;101126.00;;;4.18;100.00
43364;BME280;40636;52.424;-1.948;2023-01-29T04:32:56;101109.59;;;4.11;100.00
43364;BME280;40636;52.424;-1.948;2023-01-29T04:42:28;101089.38;;;4.14;100.00
43364;BME280;40636;52.424;-1.948;2023-01-29T04:44:32;101096.19;;;4.10;100.00
43364;BME280;40636;52.424;-1.948;2023-01-29T04:47:18;101098.97;;;4.01;100.00
43364;BME280;40636;52.424;-1.948;2023-01-29T04:50:01;101088.59;;;4.05;100.00
43364;BME280;40636;52.424;-1.948;2023-01-29T04:55:33;101079.97;;;4.01;100.00
43364;BME280;40636;52.424;-1.948;2023-01-29T05:00:52;101076.00;;;4.04;100.00
43364;BME280;40636;52.424;-1.948;2023-01-29T05:03:22;101065.22;;;3.96;100.00
43364;BME280;40636;52.424;-1.948;2023-01-29T05:05:53;101067.56;;;3.99;100.00
43364;BME280;40636;52.424;-1.948;2023-01-29T05:08:23;101071.66;;;3.95;100.00
43364;BME280;40636;52.424;-1.948;2023-01-29T05:10:52;101064.56;;;3.94;100.00
43364;BME280;40636;52.424;-1.948;2023-01-29T05:13:21;101065.88;;;3.98;100.00
43364;BME280;40636;52.424;-1.948;2023-01-29T05:16:02;101055.22;;;3.96;100.00
43364;BME280;40636;52.424;-1.948;2023-01-29T05:18:31;101048.84;;;4.04;100.00
43364;BME280;40636;52.424;-1.948;2023-01-29T05:21:00;101051.41;;;4.05;100.00
43364;BME280;40636;52.424;-1.948;2023-01-29T05:23:29;101052.44;;;4.04;100.00
43364;BME280;40636;52.424;-1.948;2023-01-29T05:25:56;101053.44;;;4.03;100.00
43364;BME280;40636;52.424;-1.948;2023-01-29T05:28:23;101048.41;;;4.00;100.00
43364;BME280;40636;52.424;-1.948;2023-01-29T05:30:53;101050.09;;;4.01;100.00
43364;BME280;40636;52.424;-1.948;2023-01-29T05:35:49;101043.66;;;3.94;100.00
43364;BME280;40636;52.424;-1.948;2023-01-29T05:38:17;101035.38;;;3.96;100.00
43364;BME280;40636;52.424;-1.948;2023-01-29T05:40:45;101035.16;;;3.97;100.00
43364;BME280;40636;52.424;-1.948;2023-01-29T05:43:17;101026.19;;;3.97;100.00
43364;BME280;40636;52.424;-1.948;2023-01-29T05:45:58;101016.06;;;3.91;100.00
43364;BME280;40636;52.424;-1.948;2023-01-29T05:48:27;101014.19;;;3.91;100.00
43364;BME280;40636;52.424;-1.948;2023-01-29T05:51:02;101016.41;;;3.88;100.00
43364;BME280;40636;52.424;-1.948;2023-01-29T05:53:30;101006.50;;;3.95;100.00
43364;BME280;40636;52.424;-1.948;2023-01-29T05:56:00;101012.78;;;3.95;100.00
43364;BME280;40636;52.424;-1.948;2023-01-29T05:58:31;101008.66;;;3.99;100.00
43364;BME280;40636;52.424;-1.948;2023-01-29T06:01:10;101014.09;;;3.99;100.00
43364;BME280;40636;52.424;-1.948;2023-01-29T06:03:37;101007.16;;;3.97;100.00
43364;BME280;40636;52.424;-1.948;2023-01-29T06:06:05;101014.47;;;3.96;100.00
43364;BME280;40636;52.424;-1.948;2023-01-29T06:08:32;101003.97;;;3.93;100.00
43364;BME280;40636;52.424;-1.948;2023-01-29T06:10:58;100995.53;;;3.88;100.00
43364;BME280;40636;52.424;-1.948;2023-01-29T06:13:25;101001.84;;;3.80;100.00
43364;BME280;40636;52.424;-1.948;2023-01-29T06:15:52;100988.81;;;3.76;100.00
43364;BME280;40636;52.424;-1.948;2023-01-29T06:18:18;100986.94;;;3.76;100.00
43364;BME280;40636;52.424;-1.948;2023-01-29T06:20:45;100995.22;;;3.83;100.00
43364;BME280;40636;52.424;-1.948;2023-01-29T06:23:12;100993.34;;;3.84;100.00
43364;BME280;40636;52.424;-1.948;2023-01-29T06:25:39;100985.84;;;3.86;100.00
43364;BME280;40636;52.424;-1.948;2023-01-29T06:28:05;100978.63;;;3.78;100.00
43364;BME280;40636;52.424;-1.948;2023-01-29T06:30:32;100979.28;;;3.80;100.00
43364;BME280;40636;52.424;-1.948;2023-01-29T06:32:59;100985.75;;;3.79;100.00
43364;BME280;40636;52.424;-1.948;2023-01-29T06:35:32;100981.34;;;3.78;100.00
43364;BME280;40636;52.424;-1.948;2023-01-29T06:37:59;100975.72;;;3.79;100.00
43364;BME280;40636;52.424;-1.948;2023-01-29T06:40:26;100979.47;;;3.78;100.00
43364;BME280;40636;52.424;-1.948;2023-01-29T06:42:53;100979.28;;;3.80;100.00
43364;BME280;40636;52.424;-1.948;2023-01-29T06:45:19;100973.00;;;3.79;100.00
43364;BME280;40636;52.424;-1.948;2023-01-29T06:47:46;100974.88;;;3.79;100.00
43364;BME280;40636;52.424;-1.948;2023-01-29T06:50:13;100970.31;;;3.79;100.00
43364;BME280;40636;52.424;-1.948;2023-01-29T06:52:40;100973.22;;;3.78;100.00
43364;BME280;40636;52.424;-1.948;2023-01-29T06:55:07;100972.81;;;3.81;100.00
43364;BME280;40636;52.424;-1.948;2023-01-29T06:57:33;100973.84;;;3.80;100.00
43364;BME280;40636;52.424;-1.948;2023-01-29T07:00:00;100985.00;;;3.85;100.00
43364;BME280;40636;52.424;-1.948;2023-01-29T07:02:27;100975.69;;;3.88;100.00
43364;BME280;40636;52.424;-1.948;2023-01-29T07:04:54;100971.72;;;3.90;100.00
43364;BME280;40636;52.424;-1.948;2023-01-29T07:07:21;100978.50;;;3.94;100.00
43364;BME280;40636;52.424;-1.948;2023-01-29T07:09:48;100969.81;;;3.99;100.00
43364;BME280;40636;52.424;-1.948;2023-01-29T07:12:14;100976.06;;;3.99;100.00
43364;BME280;40636;52.424;-1.948;2023-01-29T07:14:41;100966.72;;;4.02;100.00
43364;BME280;40636;52.424;-1.948;2023-01-29T07:17:08;100965.88;;;4.01;100.00
43364;BME280;40636;52.424;-1.948;2023-01-29T07:19:34;100964.84;;;4.02;100.00
43364;BME280;40636;52.424;-1.948;2023-01-29T07:22:01;100972.44;;;4.07;100.00
43364;BME280;40636;52.424;-1.948;2023-01-29T07:24:29;100959.56;;;4.09;100.00
43364;BME280;40636;52.424;-1.948;2023-01-29T07:26:56;100966.81;;;4.08;100.00
43364;BME280;40636;52.424;-1.948;2023-01-29T07:29:23;100962.56;;;4.14;100.00
43364;BME280;40636;52.424;-1.948;2023-01-29T07:31:50;100964.25;;;4.15;100.00
43364;BME280;40636;52.424;-1.948;2023-01-29T07:34:17;100963.09;;;4.10;100.00
43364;BME280;40636;52.424;-1.948;2023-01-29T07:36:43;100965.63;;;4.11;100.00
43364;BME280;40636;52.424;-1.948;2023-01-29T07:39:10;100969.88;;;4.14;100.00
43364;BME280;40636;52.424;-1.948;2023-01-29T07:41:37;100973.59;;;4.13;100.00
43364;BME280;40636;52.424;-1.948;2023-01-29T07:44:04;100964.31;;;4.07;100.00
43364;BME280;40636;52.424;-1.948;2023-01-29T07:46:31;100970.41;;;4.09;100.00
43364;BME280;40636;52.424;-1.948;2023-01-29T07:48:57;100969.53;;;4.08;100.00
43364;BME280;40636;52.424;-1.948;2023-01-29T07:51:24;100968.69;;;4.08;100.00
43364;BME280;40636;52.424;-1.948;2023-01-29T07:53:51;100974.63;;;4.12;100.00
43364;BME280;40636;52.424;-1.948;2023-01-29T07:56:18;100974.25;;;4.15;100.00
43364;BME280;40636;52.424;-1.948;2023-01-29T07:58:45;100974.06;;;4.16;100.00
43364;BME280;40636;52.424;-1.948;2023-01-29T08:01:13;100971.34;;;4.16;100.00
43364;BME280;40636;52.424;-1.948;2023-01-29T08:03:40;100977.63;;;4.17;100.00
43364;BME280;40636;52.424;-1.948;2023-01-29T08:06:07;100972.88;;;4.19;100.00
43364;BME280;40636;52.424;-1.948;2023-01-29T08:08:34;100973.81;;;4.26;100.00
43364;BME280;40636;52.424;-1.948;2023-01-29T08:11:02;100983.13;;;4.31;100.00
43364;BME280;40636;52.424;-1.948;2023-01-29T08:13:29;100982.25;;;4.31;100.00
43364;BME280;40636;52.424;-1.948;2023-01-29T08:16:00;100971.03;;;4.34;100.00
43364;BME280;40636;52.424;-1.948;2023-01-29T08:18:27;100975.41;;;4.35;100.00
43364;BME280;40636;52.424;-1.948;2023-01-29T08:20:58;100969.63;;;4.38;100.00
43364;BME280;40636;52.424;-1.948;2023-01-29T08:23:25;100975.69;;;4.40;100.00
43364;BME280;40636;52.424;-1.948;2023-01-29T08:25:52;100987.91;;;4.44;100.00
43364;BME280;40636;52.424;-1.948;2023-01-29T08:28:19;100983.13;;;4.46;100.00
43364;BME280;40636;52.424;-1.948;2023-01-29T08:30:46;100986.22;;;4.43;100.00
43364;BME280;40636;52.424;-1.948;2023-01-29T08:33:13;100983.50;;;4.43;100.00
43364;BME280;40636;52.424;-1.948;2023-01-29T08:35:41;100977.56;;;4.40;100.00
43364;BME280;40636;52.424;-1.948;2023-01-29T08:38:08;100973.53;;;4.36;100.00
43364;BME280;40636;52.424;-1.948;2023-01-29T08:40:34;100963.34;;;4.38;100.00
43364;BME280;40636;52.424;-1.948;2023-01-29T08:43:03;100969.63;;;4.38;100.00
43364;BME280;40636;52.424;-1.948;2023-01-29T08:45:35;100974.78;;;4.33;100.00
43364;BME280;40636;52.424;-1.948;2023-01-29T08:48:02;100982.09;;;4.32;100.00
43364;BME280;40636;52.424;-1.948;2023-01-29T08:50:29;100972.06;;;4.33;100.00
43364;BME280;40636;52.424;-1.948;2023-01-29T08:52:58;100976.81;;;4.31;100.00
43364;BME280;40636;52.424;-1.948;2023-01-29T08:55:25;100968.66;;;4.31;100.00
43364;BME280;40636;52.424;-1.948;2023-01-29T08:57:52;100969.13;;;4.35;100.00
43364;BME280;40636;52.424;-1.948;2023-01-29T09:00:19;100967.09;;;4.37;100.00
43364;BME280;40636;52.424;-1.948;2023-01-29T09:02:46;100967.94;;;4.37;100.00
43364;BME280;40636;52.424;-1.948;2023-01-29T09:05:14;100970.09;;;4.42;100.00
43364;BME280;40636;52.424;-1.948;2023-01-29T09:07:41;100956.31;;;4.43;100.00
43364;BME280;40636;52.424;-1.948;2023-01-29T09:10:08;100962.44;;;4.45;100.00
43364;BME280;40636;52.424;-1.948;2023-01-29T09:12:35;100969.47;;;4.54;100.00
43364;BME280;40636;52.424;-1.948;2023-01-29T09:15:01;100971.22;;;4.62;100.00
43364;BME280;40636;52.424;-1.948;2023-01-29T09:17:28;100970.03;;;4.65;100.00
43364;BME280;40636;52.424;-1.948;2023-01-29T09:19:55;100972.66;;;4.73;100.00
43364;BME280;40636;52.424;-1.948;2023-01-29T09:22:21;100974.63;;;4.79;100.00
43364;BME280;40636;52.424;-1.948;2023-01-29T09:24:48;100976.41;;;4.87;100.00
43364;BME280;40636;52.424;-1.948;2023-01-29T09:27:15;100959.34;;;4.93;100.00
43364;BME280;40636;52.424;-1.948;2023-01-29T09:29:41;100966.66;;;4.92;100.00
43364;BME280;40636;52.424;-1.948;2023-01-29T09:32:09;100954.63;;;5.01;100.00
43364;BME280;40636;52.424;-1.948;2023-01-29T09:34:36;100958.72;;;5.12;100.00
43364;BME280;40636;52.424;-1.948;2023-01-29T09:37:03;100955.34;;;5.25;100.00
43364;BME280;40636;52.424;-1.948;2023-01-29T09:39:29;100961.06;;;5.30;100.00
43364;BME280;40636;52.424;-1.948;2023-01-29T09:47:19;100961.00;;;5.45;100.00
43364;BME280;40636;52.424;-1.948;2023-01-29T09:49:54;100955.19;;;5.48;100.00
43364;BME280;40636;52.424;-1.948;2023-01-29T09:57:45;100953.22;;;5.78;100.00
43364;BME280;40636;52.424;-1.948;2023-01-29T10:00:39;100956.44;;;5.88;100.00
43364;BME280;40636;52.424;-1.948;2023-01-29T10:16:35;100954.28;;;6.26;100.00
43364;BME280;40636;52.424;-1.948;2023-01-29T10:22:12;100939.72;;;6.41;100.00
43364;BME280;40636;52.424;-1.948;2023-01-29T10:24:53;100926.34;;;6.46;100.00
43364;BME280;40636;52.424;-1.948;2023-01-29T10:27:21;100920.53;;;6.55;100.00
43364;BME280;40636;52.424;-1.948;2023-01-29T10:29:49;100922.16;;;6.50;100.00
43364;BME280;40636;52.424;-1.948;2023-01-29T10:32:20;100913.41;;;6.54;100.00
43364;BME280;40636;52.424;-1.948;2023-01-29T10:34:55;100908.53;;;6.50;100.00
43364;BME280;40636;52.424;-1.948;2023-01-29T10:37:39;100906.84;;;6.49;100.00
43364;BME280;40636;52.424;-1.948;2023-01-29T10:40:28;100912.88;;;6.44;100.00
43364;BME280;40636;52.424;-1.948;2023-01-29T10:43:37;100905.16;;;6.48;100.00
43364;BME280;40636;52.424;-1.948;2023-01-29T10:46:37;100915.38;;;6.39;100.00
43364;BME280;40636;52.424;-1.948;2023-01-29T10:52:07;100899.69;;;6.48;100.00
43364;BME280;40636;52.424;-1.948;2023-01-29T10:55:00;100908.31;;;6.51;100.00
43364;BME280;40636;52.424;-1.948;2023-01-29T11:00:35;100909.28;;;6.72;100.00
43364;BME280;40636;52.424;-1.948;2023-01-29T11:03:13;100905.09;;;6.76;100.00
43364;BME280;40636;52.424;-1.948;2023-01-29T11:06:31;100897.56;;;6.78;100.00
43364;BME280;40636;52.424;-1.948;2023-01-29T11:09:26;100901.16;;;6.85;100.00
43364;BME280;40636;52.424;-1.948;2023-01-29T11:12:13;100889.84;;;6.95;100.00
43364;BME280;40636;52.424;-1.948;2023-01-29T11:17:16;100883.78;;;6.99;100.00
43364;BME280;40636;52.424;-1.948;2023-01-29T11:19:45;100890.56;;;7.10;100.00
43364;BME280;40636;52.424;-1.948;2023-01-29T11:22:14;100873.78;;;7.20;100.00
43364;BME280;40636;52.424;-1.948;2023-01-29T11:24:42;100862.25;;;7.24;100.00
43364;BME280;40636;52.424;-1.948;2023-01-29T11:27:24;100849.03;;;7.34;100.00
43364;BME280;40636;52.424;-1.948;2023-01-29T11:29:52;100846.75;;;7.45;100.00
43364;BME280;40636;52.424;-1.948;2023-01-29T11:37:35;100826.38;;;7.54;100.00
43364;BME280;40636;52.424;-1.948;2023-01-29T11:42:48;100813.13;;;7.44;100.00
43364;BME280;40636;52.424;-1.948;2023-01-29T11:45:28;100809.13;;;7.40;100.00
43364;BME280;40636;52.424;-1.948;2023-01-29T11:47:58;100798.66;;;7.50;100.00
43364;BME280;40636;52.424;-1.948;2023-01-29T11:50:27;100800.31;;;7.58;100.00
43364;BME280;40636;52.424;-1.948;2023-01-29T11:52:57;100799.06;;;7.60;100.00
43364;BME280;40636;52.424;-1.948;2023-01-29T11:55:27;100790.88;;;7.60;100.00
43364;BME280;40636;52.424;-1.948;2023-01-29T11:58:16;100780.19;;;7.59;100.00
43364;BME280;40636;52.424;-1.948;2023-01-29T12:00:47;100773.03;;;7.51;100.00
43364;BME280;40636;52.424;-1.948;2023-01-29T12:03:20;100768.59;;;7.57;100.00
43364;BME280;40636;52.424;-1.948;2023-01-29T12:06:01;100754.53;;;7.60;100.00
43364;BME280;40636;52.424;-1.948;2023-01-29T12:08:36;100762.31;;;7.63;100.00
43364;BME280;40636;52.424;-1.948;2023-01-29T12:11:33;100750.97;;;7.59;100.00
43364;BME280;40636;52.424;-1.948;2023-01-29T12:14:04;100749.91;;;7.54;100.00
43364;BME280;40636;52.424;-1.948;2023-01-29T12:17:06;100738.56;;;7.50;100.00
43364;BME280;40636;52.424;-1.948;2023-01-29T12:19:51;100729.94;;;7.53;100.00
43364;BME280;40636;52.424;-1.948;2023-01-29T12:22:49;100732.66;;;7.53;100.00
43364;BME280;40636;52.424;-1.948;2023-01-29T12:25:42;100727.84;;;7.49;100.00
43364;BME280;40636;52.424;-1.948;2023-01-29T12:28:18;100733.72;;;7.52;100.00
43364;BME280;40636;52.424;-1.948;2023-01-29T12:38:56;100694.50;;;7.27;100.00
43364;BME280;40636;52.424;-1.948;2023-01-29T12:44:19;100682.94;;;7.31;100.00
43364;BME280;40636;52.424;-1.948;2023-01-29T12:46:56;100676.81;;;7.43;100.00
43364;BME280;40636;52.424;-1.948;2023-01-29T12:49:34;100681.22;;;7.50;100.00
43364;BME280;40636;52.424;-1.948;2023-01-29T12:57:59;100675.72;;;7.70;100.00
43364;BME280;40636;52.424;-1.948;2023-01-29T13:05:50;100662.44;;;7.80;100.00
43364;BME280;40636;52.424;-1.948;2023-01-29T13:08:20;100650.66;;;7.86;100.00
43364;BME280;40636;52.424;-1.948;2023-01-29T13:10:51;100662.22;;;7.88;100.00
43364;BME280;40636;52.424;-1.948;2023-01-29T13:14:17;100655.84;;;8.01;100.00
43364;BME280;40636;52.424;-1.948;2023-01-29T13:16:49;100653.94;;;8.08;100.00
43364;BME280;40636;52.424;-1.948;2023-01-29T13:19:39;100644.69;;;8.09;100.00
43364;BME280;40636;52.424;-1.948;2023-01-29T13:22:31;100625.97;;;8.13;100.00
43364;BME280;40636;52.424;-1.948;2023-01-29T13:25:00;100638.16;;;8.10;100.00
43364;BME280;40636;52.424;-1.948;2023-01-29T13:27:33;100624.06;;;8.13;100.00
43364;BME280;40636;52.424;-1.948;2023-01-29T13:30:00;100614.63;;;8.09;100.00
43364;BME280;40636;52.424;-1.948;2023-01-29T13:32:30;100622.59;;;8.11;100.00
43364;BME280;40636;52.424;-1.948;2023-01-29T13:35:10;100621.06;;;8.22;100.00
43364;BME280;40636;52.424;-1.948;2023-01-29T13:37:48;100616.66;;;8.21;100.00
43364;BME280;40636;52.424;-1.948;2023-01-29T13:40:23;100611.34;;;8.26;100.00
43364;BME280;40636;52.424;-1.948;2023-01-29T13:42:51;100610.50;;;8.32;100.00
43364;BME280;40636;52.424;-1.948;2023-01-29T13:45:25;100600.41;;;8.32;100.00
43364;BME280;40636;52.424;-1.948;2023-01-29T13:50:44;100594.47;;;8.42;100.00
43364;BME280;40636;52.424;-1.948;2023-01-29T13:53:24;100590.66;;;8.50;100.00
43364;BME280;40636;52.424;-1.948;2023-01-29T13:55:52;100598.19;;;8.54;100.00
43364;BME280;40636;52.424;-1.948;2023-01-29T14:00:59;100599.41;;;8.58;100.00
43364;BME280;40636;52.424;-1.948;2023-01-29T14:06:03;100589.97;;;8.54;100.00
43364;BME280;40636;52.424;-1.948;2023-01-29T14:13:38;100573.09;;;8.57;100.00
43364;BME280;40636;52.424;-1.948;2023-01-29T14:19:06;100568.34;;;8.46;100.00
43364;BME280;40636;52.424;-1.948;2023-01-29T14:21:47;100570.19;;;8.52;100.00
43364;BME280;40636;52.424;-1.948;2023-01-29T14:24:18;100567.91;;;8.49;100.00
43364;BME280;40636;52.424;-1.948;2023-01-29T14:26:48;100564.72;;;8.52;100.00
43364;BME280;40636;52.424;-1.948;2023-01-29T14:29:27;100562.00;;;8.52;100.00
43364;BME280;40636;52.424;-1.948;2023-01-29T14:34:59;100553.19;;;8.50;100.00
43364;BME280;40636;52.424;-1.948;2023-01-29T14:37:34;100555.91;;;8.50;100.00
43364;BME280;40636;52.424;-1.948;2023-01-29T14:45:24;100546.00;;;8.49;100.00
43364;BME280;40636;52.424;-1.948;2023-01-29T14:47:57;100529.22;;;8.46;100.00
43364;BME280;40636;52.424;-1.948;2023-01-29T14:53:03;100528.16;;;8.47;100.00
43364;BME280;40636;52.424;-1.948;2023-01-29T14:58:23;100511.34;;;8.43;100.00
43364;BME280;40636;52.424;-1.948;2023-01-29T15:00:54;100518.31;;;8.39;100.00
43364;BME280;40636;52.424;-1.948;2023-01-29T15:06:03;100507.81;;;8.36;100.00
43364;BME280;40636;52.424;-1.948;2023-01-29T15:08:37;100522.53;;;8.35;100.00
43364;BME280;40636;52.424;-1.948;2023-01-29T15:11:11;100517.34;;;8.27;100.00
43364;BME280;40636;52.424;-1.948;2023-01-29T15:16:50;100511.09;;;8.20;100.00
43364;BME280;40636;52.424;-1.948;2023-01-29T15:19:27;100509.41;;;8.19;100.00
43364;BME280;40636;52.424;-1.948;2023-01-29T15:22:21;100507.19;;;8.02;100.00
43364;BME280;40636;52.424;-1.948;2023-01-29T15:25:35;100508.69;;;7.98;100.00
43364;BME280;40636;52.424;-1.948;2023-01-29T15:28:03;100505.78;;;7.93;100.00
43364;BME280;40636;52.424;-1.948;2023-01-29T15:30:36;100516.97;;;7.85;100.00
43364;BME280;40636;52.424;-1.948;2023-01-29T15:33:06;100498.06;;;7.83;100.00
43364;BME280;40636;52.424;-1.948;2023-01-29T15:35:36;100505.88;;;7.80;100.00
43364;BME280;40636;52.424;-1.948;2023-01-29T15:40:33;100513.53;;;7.65;100.00
43364;BME280;40636;52.424;-1.948;2023-01-29T15:43:00;100504.09;;;7.60;100.00
43364;BME280;40636;52.424;-1.948;2023-01-29T15:45:29;100505.75;;;7.61;100.00
43364;BME280;40636;52.424;-1.948;2023-01-29T15:48:13;100504.13;;;7.47;100.00
43364;BME280;40636;52.424;-1.948;2023-01-29T15:50:43;100481.47;;;7.40;100.00